createdAt,value
2022-08-11T00:01:06.385Z,100327.34
2022-08-11T00:03:54.092Z,100322.81
2022-08-11T00:06:32.139Z,100320.78
2022-08-11T00:09:09.315Z,100325.50
2022-08-11T00:11:45.290Z,100325.00
2022-08-11T00:14:20.900Z,100319.50
2022-08-11T00:16:57.095Z,100326.59
2022-08-11T00:20:11.857Z,100326.34
2022-08-11T00:22:38.507Z,100324.53
2022-08-11T00:25:19.631Z,100328.78
2022-08-11T00:27:59.083Z,100330.59
2022-08-11T00:30:44.496Z,100334.88
2022-08-11T00:33:13.843Z,100323.31
2022-08-11T00:35:55.335Z,100324.06
2022-08-11T00:38:27.233Z,100317.56
2022-08-11T00:41:15.603Z,100322.16
2022-08-11T00:44:20.228Z,100317.16
2022-08-11T00:47:27.377Z,100318.53
2022-08-11T00:50:15.366Z,100314.81
2022-08-11T00:52:55.248Z,100319.75
2022-08-11T00:55:55.895Z,100320.59
2022-08-11T00:58:38.654Z,100318.44
2022-08-11T01:01:17.715Z,100322.94
2022-08-11T01:04:17.845Z,100317.44
2022-08-11T01:08:02.916Z,100316.94
2022-08-11T01:11:11.063Z,100326.56
2022-08-11T01:14:02.994Z,100322.06
2022-08-11T01:17:05.154Z,100317.44
2022-08-11T01:20:46.745Z,100321.75
2022-08-11T01:23:21.899Z,100326.78
2022-08-11T01:25:57.482Z,100333.09
2022-08-11T01:28:40.496Z,100325.19
2022-08-11T01:31:30.938Z,100320.22
2022-08-11T01:34:28.917Z,100319.59
2022-08-11T01:37:34.317Z,100321.72
2022-08-11T01:40:32.491Z,100322.06
2022-08-11T01:43:50.459Z,100324.72
2022-08-11T01:46:43.017Z,100315.34
2022-08-11T01:50:06.854Z,100317.88
2022-08-11T01:52:37.457Z,100316.59
2022-08-11T01:55:27.499Z,100318.53
2022-08-11T01:58:43.468Z,100316.69
2022-08-11T02:01:39.357Z,100323.91
2022-08-11T02:04:20.923Z,100322.31
2022-08-11T02:07:20.056Z,100319.59
2022-08-11T02:09:56.248Z,100321.00
2022-08-11T02:12:46.089Z,100313.78
2022-08-11T02:15:55.928Z,100313.25
2022-08-11T02:18:59.957Z,100310.78
2022-08-11T02:22:19.561Z,100318.16
2022-08-11T02:25:19.318Z,100310.56
2022-08-11T02:28:09.612Z,100318.75
2022-08-11T02:31:07.282Z,100323.31
2022-08-11T02:33:45.340Z,100325.41
2022-08-11T02:36:21.281Z,100328.72
2022-08-11T02:39:15.920Z,100328.94
2022-08-11T02:42:33.469Z,100330.56
2022-08-11T02:45:19.645Z,100328.59
2022-08-11T02:48:25.662Z,100325.63
2022-08-11T02:51:28.584Z,100328.06
2022-08-11T02:54:30.502Z,100326.47
2022-08-11T02:57:11.704Z,100322.66
2022-08-11T03:00:07.905Z,100328.84
2022-08-11T03:02:54.085Z,100330.91
2022-08-11T03:05:43.112Z,100325.81
2022-08-11T03:08:41.715Z,100328.47
2022-08-11T03:12:05.620Z,100335.16
2022-08-11T03:15:01.960Z,100329.59
2022-08-11T03:17:51.321Z,100331.19
2022-08-11T03:20:33.483Z,100338.22
2022-08-11T03:23:20.381Z,100330.63
2022-08-11T03:25:54.991Z,100340.66
2022-08-11T03:28:24.821Z,100340.41
2022-08-11T03:31:20.215Z,100348.03
2022-08-11T03:34:07.206Z,100334.88
2022-08-11T03:37:38.980Z,100338.41
2022-08-11T03:40:38.150Z,100333.03
2022-08-11T03:43:28.504Z,100333.69
2022-08-11T03:46:27.209Z,100339.06
2022-08-11T03:49:21.540Z,100337.78
2022-08-11T03:52:08.789Z,100339.72
2022-08-11T03:55:02.351Z,100329.47
2022-08-11T03:58:10.864Z,100334.53
2022-08-11T04:00:55.935Z,100320.81
2022-08-11T04:04:19.082Z,100323.75
2022-08-11T04:07:10.253Z,100321.06
2022-08-11T04:10:10.923Z,100322.88
2022-08-11T04:12:56.482Z,100328.16
2022-08-11T04:16:11.610Z,100328.72
2022-08-11T04:18:58.702Z,100331.53
2022-08-11T04:21:37.879Z,100340.13
2022-08-11T04:24:53.396Z,100329.31
2022-08-11T04:27:42.060Z,100332.78
2022-08-11T04:30:59.308Z,100333.84
2022-08-11T04:33:53.061Z,100327.72
2022-08-11T04:37:06.640Z,100336.00
2022-08-11T04:40:41.184Z,100334.28
2022-08-11T04:44:05.779Z,100339.41
2022-08-11T04:46:56.124Z,100334.09
2022-08-11T04:50:06.263Z,100326.41
2022-08-11T04:53:31.149Z,100327.97
2022-08-11T04:56:43.561Z,100335.66
2022-08-11T04:59:44.971Z,100339.81
2022-08-11T05:02:50.579Z,100333.31
2022-08-11T05:05:54.705Z,100347.31
2022-08-11T05:08:49.590Z,100340.41
2022-08-11T05:11:35.926Z,100342.59
2022-08-11T05:14:31.399Z,100341.75
2022-08-11T05:17:30.768Z,100351.81
2022-08-11T05:20:18.648Z,100349.31
2022-08-11T05:23:13.313Z,100352.97
2022-08-11T05:26:42.907Z,100356.16
2022-08-11T05:29:20.026Z,100356.69
2022-08-11T05:32:20.717Z,100357.16
2022-08-11T05:34:55.962Z,100360.91
2022-08-11T05:37:38.950Z,100356.66
2022-08-11T05:40:32.788Z,100370.41
2022-08-11T05:43:21.511Z,100362.34
2022-08-11T05:46:26.394Z,100365.16
2022-08-11T05:49:14.274Z,100366.75
2022-08-11T05:52:12.908Z,100368.03
2022-08-11T05:55:06.115Z,100367.16
2022-08-11T05:57:50.503Z,100361.47
2022-08-11T06:00:27.157Z,100367.72
2022-08-11T06:02:59.464Z,100362.19
2022-08-11T06:05:44.049Z,100361.84
2022-08-11T06:08:13.966Z,100372.06
2022-08-11T06:10:45.915Z,100373.69
2022-08-11T06:13:25.728Z,100370.06
2022-08-11T06:15:55.429Z,100369.75
2022-08-11T06:18:32.182Z,100368.16
2022-08-11T06:21:28.741Z,100382.09
2022-08-11T06:24:28.636Z,100377.47
2022-08-11T06:27:13.640Z,100375.00
2022-08-11T06:29:55.047Z,100375.22
2022-08-11T06:32:39.753Z,100373.41
2022-08-11T06:35:33.614Z,100371.78
2022-08-11T06:38:16.482Z,100365.66
2022-08-11T06:41:30.762Z,100371.75
2022-08-11T06:44:15.170Z,100376.25
2022-08-11T06:46:55.286Z,100372.19
2022-08-11T06:49:51.137Z,100374.81
2022-08-11T06:52:42.858Z,100365.22
2022-08-11T06:55:55.777Z,100364.38
2022-08-11T06:58:57.390Z,100367.56
2022-08-11T07:02:06.360Z,100368.25
2022-08-11T07:04:57.149Z,100371.59
2022-08-11T07:08:34.586Z,100357.00
2022-08-11T07:12:02.672Z,100358.28
2022-08-11T07:14:51.411Z,100363.66
2022-08-11T07:17:28.887Z,100356.97
2022-08-11T07:20:20.198Z,100352.25
2022-08-11T07:23:16.029Z,100357.34
2022-08-11T07:26:06.061Z,100352.81
2022-08-11T07:28:55.905Z,100352.75
2022-08-11T07:31:29.328Z,100351.44
2022-08-11T07:34:19.551Z,100346.03
2022-08-11T07:36:51.531Z,100350.78
2022-08-11T07:39:39.776Z,100354.88
2022-08-11T07:42:16.886Z,100348.94
2022-08-11T07:45:09.127Z,100357.56
2022-08-11T07:48:05.336Z,100346.66
2022-08-11T07:50:56.056Z,100344.97
2022-08-11T07:53:29.301Z,100353.44
2022-08-11T07:56:00.835Z,100349.63
2022-08-11T07:58:52.306Z,100353.28
2022-08-11T08:01:49.111Z,100347.38
2022-08-11T08:04:38.400Z,100349.44
2022-08-11T08:07:24.841Z,100345.47
2022-08-11T08:10:19.416Z,100342.19
2022-08-11T08:13:15.316Z,100338.75
2022-08-11T08:16:15.247Z,100345.25
2022-08-11T08:18:42.894Z,100339.56
2022-08-11T08:21:12.461Z,100339.34
2022-08-11T08:23:47.755Z,100331.88
2022-08-11T08:26:58.746Z,100323.09
2022-08-11T08:29:56.276Z,100322.94
2022-08-11T08:32:25.068Z,100322.59
2022-08-11T08:34:54.604Z,100318.50
2022-08-11T08:37:45.777Z,100326.94
2022-08-11T08:40:15.841Z,100315.28
2022-08-11T08:43:29.760Z,100312.72
2022-08-11T08:46:14.246Z,100311.56
2022-08-11T08:48:43.463Z,100321.53
2022-08-11T08:51:57.003Z,100309.88
2022-08-11T08:54:56.123Z,100309.63
2022-08-11T08:57:24.651Z,100306.06
2022-08-11T08:59:57.246Z,100303.63
2022-08-11T09:02:44.053Z,100309.28
2022-08-11T09:05:12.520Z,100304.97
2022-08-11T09:07:41.087Z,100292.88
2022-08-11T09:10:11.262Z,100287.84
2022-08-11T09:12:42.890Z,100298.28
2022-08-11T09:15:12.913Z,100298.03
2022-08-11T09:17:49.441Z,100298.50
2022-08-11T09:20:42.115Z,100301.00
2022-08-11T09:24:07.442Z,100294.38
2022-08-11T09:26:59.144Z,100292.22
2022-08-11T09:29:32.334Z,100289.66
2022-08-11T09:32:05.962Z,100287.13
2022-08-11T09:34:36.931Z,100290.00
2022-08-11T09:37:54.132Z,100291.88
2022-08-11T09:40:29.422Z,100290.88
2022-08-11T09:43:29.154Z,100290.38
2022-08-11T09:45:59.629Z,100286.63
2022-08-11T09:48:40.744Z,100279.06
2022-08-11T09:51:11.099Z,100284.97
2022-08-11T09:53:47.244Z,100288.66
2022-08-11T09:56:55.188Z,100283.72
2022-08-11T09:59:32.369Z,100271.66
2022-08-11T10:02:03.556Z,100271.19
2022-08-11T10:05:16.587Z,100266.44
2022-08-11T10:07:50.847Z,100253.72
2022-08-11T10:10:24.716Z,100254.75
2022-08-11T10:14:30.206Z,100255.13
2022-08-11T10:16:40.161Z,100252.38
2022-08-11T10:19:13.481Z,100249.97
2022-08-11T10:22:19.761Z,100245.03
2022-08-11T10:25:05.988Z,100240.41
2022-08-11T10:28:28.322Z,100247.84
2022-08-11T10:30:57.204Z,100244.63
2022-08-11T10:33:57.499Z,100219.56
2022-08-11T10:36:51.391Z,100229.50
2022-08-11T10:39:26.226Z,100233.38
2022-08-11T10:42:41.397Z,100231.47
2022-08-11T10:45:40.593Z,100227.72
2022-08-11T10:48:14.845Z,100226.13
2022-08-11T10:51:05.978Z,100226.13
2022-08-11T10:54:15.068Z,100219.69
2022-08-11T10:57:06.775Z,100220.31
2022-08-11T10:59:47.464Z,100214.66
2022-08-11T11:02:19.581Z,100217.66
2022-08-11T11:05:15.716Z,100214.06
2022-08-11T11:08:32.580Z,100222.06
2022-08-11T11:11:07.131Z,100205.09
2022-08-11T11:13:57.639Z,100204.84
2022-08-11T11:16:50.828Z,100208.47
2022-08-11T11:19:30.185Z,100207.09
2022-08-11T11:22:19.372Z,100198.16
2022-08-11T11:25:32.750Z,100202.78
2022-08-11T11:28:40.233Z,100190.47
2022-08-11T11:31:33.908Z,100195.75
2022-08-11T11:34:53.310Z,100181.66
2022-08-11T11:37:29.780Z,100173.94
2022-08-11T11:40:14.756Z,100169.63
2022-08-11T11:42:51.547Z,100163.34
2022-08-11T11:45:26.230Z,100169.81
2022-08-11T11:48:01.464Z,100162.22
2022-08-11T11:50:33.119Z,100166.56
2022-08-11T11:53:04.092Z,100162.00
2022-08-11T11:55:37.014Z,100152.06
2022-08-11T11:58:28.490Z,100149.91
2022-08-11T12:01:17.111Z,100146.09
2022-08-11T12:03:59.037Z,100138.84
2022-08-11T12:06:28.264Z,100140.00
2022-08-11T12:09:18.752Z,100142.41
2022-08-11T12:12:28.435Z,100141.56
2022-08-11T12:15:04.950Z,100147.78
2022-08-11T12:17:32.026Z,100143.00
2022-08-11T12:20:31.500Z,100140.97
2022-08-11T12:23:16.349Z,100135.44
2022-08-11T12:26:27.347Z,100123.84
2022-08-11T12:29:01.621Z,100122.69
2022-08-11T12:31:38.385Z,100124.91
2022-08-11T12:34:24.971Z,100120.78
2022-08-11T12:36:59.818Z,100125.88
2022-08-11T12:40:10.950Z,100114.47
2022-08-11T12:43:04.024Z,100111.50
2022-08-11T12:45:49.011Z,100107.88
2022-08-11T12:48:58.656Z,100102.94
2022-08-11T12:52:01.487Z,100099.88
2022-08-11T12:55:02.913Z,100097.28
2022-08-11T12:58:04.055Z,100093.28
2022-08-11T13:01:06.628Z,100094.78
2022-08-11T13:03:58.626Z,100085.19
2022-08-11T13:06:39.801Z,100091.31
2022-08-11T13:09:09.506Z,100080.31
2022-08-11T13:11:58.030Z,100083.78
2022-08-11T13:14:29.728Z,100075.63
2022-08-11T13:17:20.783Z,100082.66
2022-08-11T13:20:22.701Z,100068.41
2022-08-11T13:22:55.725Z,100056.56
2022-08-11T13:25:27.807Z,100060.03
2022-08-11T13:28:00.341Z,100058.94
2022-08-11T13:30:52.028Z,100051.31
2022-08-11T13:33:20.899Z,100064.31
2022-08-11T13:35:52.017Z,100056.97
2022-08-11T13:38:26.729Z,100046.38
2022-08-11T13:41:00.144Z,100048.00
2022-08-11T13:43:34.621Z,100054.28
2022-08-11T13:46:24.627Z,100059.81
2022-08-11T13:49:00.700Z,100054.38
2022-08-11T13:51:35.178Z,100049.78
2022-08-11T13:54:27.811Z,100045.44
2022-08-11T13:57:00.748Z,100046.19
2022-08-11T13:59:30.946Z,100041.19
2022-08-11T14:02:30.780Z,100041.75
2022-08-11T14:05:39.600Z,100026.75
2022-08-11T14:08:37.605Z,100023.88
2022-08-11T14:12:22.792Z,100025.00
2022-08-11T14:14:28.166Z,100022.03
2022-08-11T14:16:58.556Z,100021.66
2022-08-11T14:19:35.983Z,100018.72
2022-08-11T14:22:10.162Z,100005.47
2022-08-11T14:24:40.802Z,100014.09
2022-08-11T14:28:32.359Z,100017.03
2022-08-11T14:30:47.039Z,100006.91
2022-08-11T14:33:20.385Z,100017.94
2022-08-11T14:35:48.873Z,100017.44
2022-08-11T14:38:20.060Z,100017.03
2022-08-11T14:41:07.642Z,100006.63
2022-08-11T14:44:18.695Z,100017.84
2022-08-11T14:47:23.141Z,100016.22
2022-08-11T14:50:05.050Z,100018.94
2022-08-11T14:52:51.612Z,100013.66
2022-08-11T14:55:43.340Z,100013.88
2022-08-11T14:58:17.735Z,100022.00
2022-08-11T15:00:46.531Z,100021.38
2022-08-11T15:03:19.970Z,100019.53
2022-08-11T15:05:56.352Z,100022.78
2022-08-11T15:08:54.725Z,100016.25
2022-08-11T15:11:51.900Z,100025.84
2022-08-11T15:14:41.285Z,100017.97
2022-08-11T15:17:10.668Z,100010.38
2022-08-11T15:20:03.465Z,100009.22
2022-08-11T15:22:49.353Z,100008.25
2022-08-11T15:25:17.909Z,100016.41
2022-08-11T15:28:13.107Z,100007.91
2022-08-11T15:31:00.139Z,100007.16
2022-08-11T15:33:49.116Z,100002.72
2022-08-11T15:36:34.845Z,100004.69
2022-08-11T15:39:08.130Z,100030.41
2022-08-11T15:42:33.917Z,100041.97
2022-08-11T15:45:26.114Z,100047.59
2022-08-11T15:48:06.687Z,100066.56
2022-08-11T15:50:38.490Z,100089.19
2022-08-11T15:53:43.334Z,100091.81
2022-08-11T15:56:13.850Z,100091.16
2022-08-11T15:59:10.580Z,100098.13
2022-08-11T16:02:13.354Z,100121.06
2022-08-11T16:04:51.847Z,100126.69
2022-08-11T16:07:31.258Z,100116.63
2022-08-11T16:10:16.379Z,100127.97
2022-08-11T16:13:06.862Z,100117.25
2022-08-11T16:16:03.848Z,100131.94
2022-08-11T16:18:42.575Z,100132.97
2022-08-11T16:21:34.398Z,100124.44
2022-08-11T16:27:05.883Z,100123.94
2022-08-11T16:27:14.912Z,100137.81
2022-08-11T16:29:45.956Z,100140.97
2022-08-11T16:32:26.089Z,100141.88
2022-08-11T16:35:24.726Z,100127.19
2022-08-11T16:38:22.462Z,100119.09
2022-08-11T16:40:59.945Z,100119.09
2022-08-11T16:43:47.872Z,100102.31
2022-08-11T16:46:20.002Z,100101.56
2022-08-11T16:48:51.121Z,100098.16
2022-08-11T16:51:26.448Z,100098.00
2022-08-11T16:54:06.490Z,100097.81
2022-08-11T16:56:50.771Z,100097.03
2022-08-11T16:59:40.096Z,100092.41
2022-08-11T17:02:37.864Z,100101.72
2022-08-11T17:05:38.178Z,100085.22
2022-08-11T17:08:56.979Z,100089.69
2022-08-11T17:11:47.890Z,100084.50
2022-08-11T17:14:40.543Z,100082.00
2022-08-11T17:17:37.677Z,100078.00
2022-08-11T17:20:41.922Z,100072.09
2022-08-11T17:23:17.404Z,100065.91
2022-08-11T17:26:04.237Z,100072.78
2022-08-11T17:28:34.526Z,100078.56
2022-08-11T17:31:22.648Z,100074.41
2022-08-11T17:34:14.584Z,100076.47
2022-08-11T17:36:45.799Z,100070.13
2022-08-11T17:39:14.693Z,100077.72
2022-08-11T17:42:02.894Z,100068.66
2022-08-11T17:44:55.325Z,100062.56
2022-08-11T17:47:47.163Z,100073.44
2022-08-11T17:50:18.230Z,100065.63
2022-08-11T17:53:11.293Z,100067.72
2022-08-11T17:56:11.684Z,100075.94
2022-08-11T17:59:00.403Z,100081.91
2022-08-11T18:01:40.977Z,100076.53
2022-08-11T18:04:30.354Z,100080.69
2022-08-11T18:07:41.126Z,100073.81
2022-08-11T18:10:29.304Z,100079.44
2022-08-11T18:13:17.589Z,100083.72
2022-08-11T18:16:06.659Z,100086.25
2022-08-11T18:18:52.314Z,100083.31
2022-08-11T18:22:15.646Z,100091.63
2022-08-11T18:25:12.355Z,100088.69
2022-08-11T18:28:03.594Z,100092.44
2022-08-11T18:31:03.985Z,100092.53
2022-08-11T18:34:07.360Z,100101.72
2022-08-11T18:37:20.067Z,100091.41
2022-08-11T18:40:16.938Z,100098.81
2022-08-11T18:43:05.233Z,100104.25
2022-08-11T18:46:05.417Z,100101.50
2022-08-11T18:48:55.533Z,100100.16
2022-08-11T18:51:43.892Z,100099.31
2022-08-11T18:54:31.915Z,100097.19
2022-08-11T18:57:22.197Z,100104.91
2022-08-11T19:00:11.286Z,100107.06
2022-08-11T19:02:59.371Z,100106.63
2022-08-11T19:06:32.509Z,100111.06
2022-08-11T19:09:08.212Z,100119.56
2022-08-11T19:11:55.888Z,100101.09
2022-08-11T19:14:56.770Z,100107.09
2022-08-11T19:17:45.945Z,100112.19
2022-08-11T19:20:46.478Z,100114.53
2022-08-11T19:23:54.108Z,100110.97
2022-08-11T19:26:50.387Z,100120.16
2022-08-11T19:30:04.674Z,100117.41
2022-08-11T19:32:51.609Z,100120.47
2022-08-11T19:35:39.431Z,100114.97
2022-08-11T19:38:27.645Z,100114.84
2022-08-11T19:41:14.194Z,100111.34
2022-08-11T19:44:16.675Z,100115.09
2022-08-11T19:47:12.495Z,100106.13
2022-08-11T19:50:02.892Z,100115.06
2022-08-11T19:52:59.817Z,100116.59
2022-08-11T19:55:46.956Z,100129.47
2022-08-11T19:58:35.697Z,100125.03
2022-08-11T20:01:21.655Z,100130.06
2022-08-11T20:04:08.576Z,100124.69
2022-08-11T20:06:57.685Z,100121.91
2022-08-11T20:10:04.893Z,100128.38
2022-08-11T20:12:55.496Z,100128.47
2022-08-11T20:16:12.743Z,100123.94
2022-08-11T20:19:11.264Z,100126.94
2022-08-11T20:22:08.221Z,100123.16
2022-08-11T20:24:56.989Z,100125.19
2022-08-11T20:27:55.575Z,100128.44
2022-08-11T20:30:43.338Z,100131.09
2022-08-11T20:33:38.027Z,100138.78
2022-08-11T20:36:24.907Z,100129.31
2022-08-11T20:39:15.473Z,100123.47
2022-08-11T20:42:05.359Z,100119.34
2022-08-11T20:44:53.821Z,100115.94
2022-08-11T20:47:59.565Z,100111.88
2022-08-11T20:50:55.990Z,100116.44
2022-08-11T20:53:44.649Z,100116.63
2022-08-11T20:56:33.966Z,100115.94
2022-08-11T20:59:23.201Z,100122.69
2022-08-11T21:02:10.990Z,100130.56
2022-08-11T21:05:00.374Z,100128.84
2022-08-11T21:07:59.669Z,100123.69
2022-08-11T21:10:53.997Z,100126.25
2022-08-11T21:13:47.268Z,100132.13
2022-08-11T21:16:47.432Z,100131.94
2022-08-11T21:20:01.378Z,100135.13
2022-08-11T21:22:59.283Z,100128.16
2022-08-11T21:26:08.909Z,100131.22
2022-08-11T21:29:01.559Z,100129.97
2022-08-11T21:31:50.081Z,100126.75
2022-08-11T21:34:45.257Z,100133.78
2022-08-11T21:37:32.216Z,100133.84
2022-08-11T21:40:21.638Z,100137.06
2022-08-11T21:43:12.802Z,100142.69
2022-08-11T21:46:02.411Z,100145.94
2022-08-11T21:48:50.577Z,100144.38
2022-08-11T21:51:38.476Z,100138.09
2022-08-11T21:54:33.151Z,100140.53
2022-08-11T21:57:26.132Z,100135.03
2022-08-11T22:00:15.229Z,100132.72
2022-08-11T22:03:04.607Z,100126.25
2022-08-11T22:05:52.939Z,100128.94
2022-08-11T22:08:40.782Z,100129.03
2022-08-11T22:11:32.521Z,100133.31
2022-08-11T22:14:23.375Z,100134.03
2022-08-11T22:17:15.643Z,100134.47
2022-08-11T22:20:04.188Z,100136.50
2022-08-11T22:22:53.701Z,100142.09
2022-08-11T22:25:51.200Z,100138.81
2022-08-11T22:28:41.947Z,100139.13
2022-08-11T22:31:33.623Z,100141.03
2022-08-11T22:34:20.190Z,100126.13
2022-08-11T22:37:08.573Z,100128.47
2022-08-11T22:40:02.706Z,100130.66
2022-08-11T22:42:50.802Z,100130.16
2022-08-11T22:45:43.516Z,100124.44
2022-08-11T22:48:31.243Z,100132.88
2022-08-11T22:51:18.357Z,100132.56
2022-08-11T22:54:23.388Z,100128.72
2022-08-11T22:57:15.797Z,100127.81
2022-08-11T23:00:02.066Z,100132.66
2022-08-11T23:02:48.043Z,100129.31
2022-08-11T23:05:36.598Z,100128.22
2022-08-11T23:08:30.003Z,100128.78
2022-08-11T23:11:16.184Z,100130.03
2022-08-11T23:14:18.605Z,100142.22
2022-08-11T23:17:05.917Z,100142.94
2022-08-11T23:20:04.566Z,100137.84
2022-08-11T23:22:59.521Z,100139.56
2022-08-11T23:25:46.826Z,100134.25
2022-08-11T23:28:34.020Z,100137.41
2022-08-11T23:31:21.428Z,100132.59
2022-08-11T23:35:02.937Z,100135.75
2022-08-11T23:37:20.867Z,100129.78
2022-08-11T23:40:07.956Z,100122.91
2022-08-11T23:42:57.719Z,100119.59
2022-08-11T23:45:46.248Z,100113.22
2022-08-11T23:48:37.948Z,100120.47
2022-08-11T23:51:37.835Z,100119.25
2022-08-11T23:54:47.250Z,100126.94
2022-08-11T23:57:47.741Z,100119.59
